»·PEaware :: N27JP KCMA-KSNA

N27JP :: KCMA-KSNA

FLIGHT INFORMATION

Flight Status: Arrived
Operator: Privately registered:
United States
More flights under this callsign
Pilot: Weston J. (31543)
Aircraft: CESSNA 172 SKYHAWK
(C172)
More flights by this aircraft type
Origin: KCMA Camarillo
United States
Destination: KSNA John Wayne-Orange Co
United States
More flights between these airports :: More routes between these airports
Route:
File this flight plan on PilotEdge
Remarks:
Altitude:
(Current/Filed)
5,500ft
Speed:
(Current/Filed)
110kts
Departed: 04-Oct-20 06:52 PM
Arrived: 04-Oct-20 07:37 PM
Distance/Time
Traveled:
6823nm/0:44
Distance/Time
To Go:
Arrived

Flight Plot

Page will automatically refresh every two minutes.


Map Options




Map Legend


Flown Route
Filed Route
Departure Airport
Arrival Airport
Navaid (VOR, NDB)
Fix

Horizontal Profiles

Position Reports

Time Latitude Longitude Heading Altitude Ground
Speed
04-Oct-20 18:32 34.210242 -119.089436 91 77ft 0kts
04-Oct-20 18:33 34.210242 -119.089436 91 77ft 0kts
04-Oct-20 18:34 34.210242 -119.089436 91 77ft 0kts
04-Oct-20 18:35 34.210242 -119.089436 91 77ft 0kts
04-Oct-20 18:36 34.210242 -119.089436 91 77ft 0kts
04-Oct-20 18:37 34.210242 -119.089436 91 77ft 0kts
04-Oct-20 18:38 34.210242 -119.089436 91 77ft 0kts
04-Oct-20 18:39 34.210242 -119.089436 91 77ft 0kts
04-Oct-20 18:40 34.210242 -119.089436 91 77ft 0kts
04-Oct-20 18:41 34.210242 -119.089436 91 77ft 0kts
04-Oct-20 18:42 34.210242 -119.089436 91 77ft 0kts
04-Oct-20 18:44 34.210242 -119.089436 91 77ft 0kts
04-Oct-20 18:45 34.210242 -119.089436 91 77ft 0kts
04-Oct-20 18:46 34.210242 -119.089436 91 77ft 0kts
04-Oct-20 18:47 34.210242 -119.089436 91 77ft 0kts
04-Oct-20 18:48 34.210955 -119.088478 87 78ft 13kts
04-Oct-20 18:49 34.211878 -119.084223 4 79ft 14kts
04-Oct-20 18:50 34.212532 -119.084551 337 78ft 12kts
04-Oct-20 18:51 34.213488 -119.084726 312 79ft 13kts
04-Oct-20 18:52 34.213822 -119.106891 272 466ft 85kts
04-Oct-20 18:53 34.202070 -119.103706 99 1253ft 81kts
04-Oct-20 18:54 34.197862 -119.076792 98 2011ft 82kts
04-Oct-20 18:55 34.194928 -119.045287 94 2528ft 98kts
04-Oct-20 18:56 34.192767 -119.016878 93 2930ft 105kts
04-Oct-20 18:57 34.191298 -118.986606 92 3770ft 75kts
04-Oct-20 18:58 34.190272 -118.960541 92 4368ft 78kts
04-Oct-20 18:59 34.189273 -118.933849 92 4959ft 80kts
04-Oct-20 19:00 34.188201 -118.905216 92 5458ft 93kts
04-Oct-20 19:00 34.187010 -118.874535 92 5508ft 121kts
04-Oct-20 19:02 34.185124 -118.825789 92 5509ft 126kts
04-Oct-20 19:02 34.183753 -118.791195 92 5512ft 122kts
04-Oct-20 19:03 34.182050 -118.750070 93 5506ft 124kts
04-Oct-20 19:05 34.179992 -118.701436 93 5505ft 124kts
04-Oct-20 19:05 34.178512 -118.666444 92 5502ft 124kts
04-Oct-20 19:06 34.176755 -118.624739 92 5505ft 124kts
04-Oct-20 19:08 34.174690 -118.575737 93 5470ft 126kts
04-Oct-20 19:08 34.163742 -118.547220 155 5470ft 123kts
04-Oct-20 19:09 34.152726 -118.572791 286 5467ft 120kts
04-Oct-20 19:10 34.167894 -118.563996 133 5475ft 122kts
04-Oct-20 19:11 34.139895 -118.540265 145 5494ft 123kts
04-Oct-20 19:12 34.110055 -118.519893 156 5492ft 123kts
04-Oct-20 19:13 34.078883 -118.502498 155 5492ft 122kts
04-Oct-20 19:14 34.047843 -118.485166 155 5496ft 123kts
04-Oct-20 19:15 34.016888 -118.468622 165 5495ft 120kts
04-Oct-20 19:16 33.986003 -118.455975 157 5495ft 119kts
04-Oct-20 19:17 33.955211 -118.440951 158 5495ft 119kts
04-Oct-20 19:18 33.926003 -118.422897 136 5496ft 119kts
04-Oct-20 19:19 33.902389 -118.394463 135 5495ft 120kts
04-Oct-20 19:20 33.878823 -118.366121 135 5496ft 120kts
04-Oct-20 19:21 33.855210 -118.337755 135 5495ft 120kts
04-Oct-20 19:22 33.832146 -118.310084 135 5495ft 120kts
04-Oct-20 19:23 33.814339 -118.277043 139 5494ft 119kts
04-Oct-20 19:24 33.789079 -118.250854 139 5494ft 119kts
04-Oct-20 19:25 33.763862 -118.224695 139 5495ft 119kts
04-Oct-20 19:26 33.750137 -118.190926 97 5496ft 120kts
04-Oct-20 19:27 33.745834 -118.151548 97 5495ft 120kts
04-Oct-20 19:28 33.741494 -118.111819 97 5376ft 119kts
04-Oct-20 19:29 33.737161 -118.072397 97 4946ft 119kts
04-Oct-20 19:30 33.732812 -118.033319 97 4405ft 118kts
04-Oct-20 19:31 33.728575 -117.994986 97 3910ft 117kts
04-Oct-20 19:32 33.724436 -117.955996 96 3411ft 115kts
04-Oct-20 19:33 33.715441 -117.915028 102 1757ft 114kts
04-Oct-20 19:34 33.704929 -117.883446 112 934ft 90kts
04-Oct-20 19:35 33.690871 -117.863866 159 488ft 76kts
04-Oct-20 19:36 33.675924 -117.868902 235 56ft 26kts
04-Oct-20 19:37 33.675965 -117.869801 295 55ft 0kts
04-Oct-20 19:38 33.675965 -117.869801 295 55ft 0kts
04-Oct-20 19:39 33.676177 -117.870280 298 54ft 11kts
04-Oct-20 19:40 33.676355 -117.871067 210 52ft 0kts
04-Oct-20 19:41 0.000408 0.013975 0 3ft 0kts

Navigation Log

Ident Type
Flight plan parsing failed, navigation log unavailable